sensor_id;sensor_type;location;lat;lon;timestamp;P1;durP1;ratioP1;P2;durP2;ratioP2
84695;SDS011;74913;40.204;44.532;2024-01-07T00:01:34;5.50;;;2.80;;
84695;SDS011;74913;40.204;44.532;2024-01-07T00:04:00;4.55;;;2.00;;
84695;SDS011;74913;40.204;44.532;2024-01-07T00:06:25;3.83;;;1.90;;
84695;SDS011;74913;40.204;44.532;2024-01-07T00:08:51;5.85;;;2.17;;
84695;SDS011;74913;40.204;44.532;2024-01-07T00:11:16;8.27;;;1.83;;
84695;SDS011;74913;40.204;44.532;2024-01-07T00:13:42;5.15;;;2.22;;
84695;SDS011;74913;40.204;44.532;2024-01-07T00:16:08;3.97;;;2.22;;
84695;SDS011;74913;40.204;44.532;2024-01-07T00:18:33;4.60;;;2.30;;
84695;SDS011;74913;40.204;44.532;2024-01-07T00:20:59;3.40;;;1.55;;
84695;SDS011;74913;40.204;44.532;2024-01-07T00:23:25;4.47;;;2.28;;
84695;SDS011;74913;40.204;44.532;2024-01-07T00:25:50;7.07;;;2.53;;
84695;SDS011;74913;40.204;44.532;2024-01-07T00:28:16;3.78;;;1.77;;
84695;SDS011;74913;40.204;44.532;2024-01-07T00:30:42;6.00;;;2.40;;
84695;SDS011;74913;40.204;44.532;2024-01-07T00:33:07;3.50;;;2.25;;
84695;SDS011;74913;40.204;44.532;2024-01-07T00:35:33;5.85;;;2.28;;
84695;SDS011;74913;40.204;44.532;2024-01-07T00:37:58;6.00;;;2.47;;
84695;SDS011;74913;40.204;44.532;2024-01-07T00:40:24;4.35;;;1.85;;
84695;SDS011;74913;40.204;44.532;2024-01-07T00:42:50;3.65;;;1.90;;
84695;SDS011;74913;40.204;44.532;2024-01-07T00:45:16;3.33;;;1.90;;
84695;SDS011;74913;40.204;44.532;2024-01-07T00:47:42;7.43;;;1.67;;
84695;SDS011;74913;40.204;44.532;2024-01-07T00:50:08;6.07;;;2.42;;
84695;SDS011;74913;40.204;44.532;2024-01-07T00:52:34;6.15;;;2.42;;
84695;SDS011;74913;40.204;44.532;2024-01-07T00:55:02;4.63;;;2.45;;
84695;SDS011;74913;40.204;44.532;2024-01-07T00:57:29;4.03;;;2.00;;
84695;SDS011;74913;40.204;44.532;2024-01-07T00:59:55;3.10;;;1.80;;
84695;SDS011;74913;40.204;44.532;2024-01-07T01:02:21;6.28;;;2.05;;
84695;SDS011;74913;40.204;44.532;2024-01-07T01:04:47;5.25;;;1.90;;
84695;SDS011;74913;40.204;44.532;2024-01-07T01:07:13;5.40;;;2.03;;
84695;SDS011;74913;40.204;44.532;2024-01-07T01:09:39;3.10;;;1.83;;
84695;SDS011;74913;40.204;44.532;2024-01-07T01:12:05;3.58;;;2.10;;
84695;SDS011;74913;40.204;44.532;2024-01-07T01:14:31;4.80;;;2.13;;
84695;SDS011;74913;40.204;44.532;2024-01-07T01:16:56;4.30;;;1.90;;
84695;SDS011;74913;40.204;44.532;2024-01-07T01:19:23;5.82;;;2.03;;
84695;SDS011;74913;40.204;44.532;2024-01-07T01:21:49;5.53;;;2.10;;
84695;SDS011;74913;40.204;44.532;2024-01-07T01:24:14;4.88;;;2.10;;
84695;SDS011;74913;40.204;44.532;2024-01-07T01:26:40;7.60;;;1.90;;
84695;SDS011;74913;40.204;44.532;2024-01-07T01:29:06;5.50;;;2.20;;
84695;SDS011;74913;40.204;44.532;2024-01-07T01:31:31;4.90;;;1.98;;
84695;SDS011;74913;40.204;44.532;2024-01-07T01:33:57;5.65;;;2.30;;
84695;SDS011;74913;40.204;44.532;2024-01-07T01:36:22;5.75;;;2.30;;
84695;SDS011;74913;40.204;44.532;2024-01-07T01:38:49;6.10;;;2.08;;
84695;SDS011;74913;40.204;44.532;2024-01-07T01:41:15;4.85;;;2.10;;
84695;SDS011;74913;40.204;44.532;2024-01-07T01:43:41;4.13;;;1.92;;
84695;SDS011;74913;40.204;44.532;2024-01-07T01:46:07;4.70;;;1.98;;
84695;SDS011;74913;40.204;44.532;2024-01-07T01:48:33;5.95;;;2.10;;
84695;SDS011;74913;40.204;44.532;2024-01-07T01:51:01;4.13;;;1.88;;
84695;SDS011;74913;40.204;44.532;2024-01-07T01:55:54;5.10;;;1.60;;
84695;SDS011;74913;40.204;44.532;2024-01-07T01:58:22;5.35;;;1.95;;
84695;SDS011;74913;40.204;44.532;2024-01-07T02:00:49;5.57;;;2.03;;
84695;SDS011;74913;40.204;44.532;2024-01-07T02:03:16;4.50;;;1.73;;
84695;SDS011;74913;40.204;44.532;2024-01-07T02:05:42;2.72;;;1.70;;
84695;SDS011;74913;40.204;44.532;2024-01-07T02:08:08;4.20;;;2.20;;
84695;SDS011;74913;40.204;44.532;2024-01-07T02:10:34;4.75;;;1.58;;
84695;SDS011;74913;40.204;44.532;2024-01-07T02:13:02;3.72;;;1.70;;
84695;SDS011;74913;40.204;44.532;2024-01-07T02:15:31;3.33;;;1.42;;
84695;SDS011;74913;40.204;44.532;2024-01-07T02:17:57;2.90;;;1.65;;
84695;SDS011;74913;40.204;44.532;2024-01-07T02:20:23;2.83;;;1.60;;
84695;SDS011;74913;40.204;44.532;2024-01-07T02:22:49;5.18;;;1.70;;
84695;SDS011;74913;40.204;44.532;2024-01-07T02:25:14;3.30;;;1.50;;
84695;SDS011;74913;40.204;44.532;2024-01-07T02:27:40;3.38;;;1.63;;
84695;SDS011;74913;40.204;44.532;2024-01-07T02:30:06;3.92;;;1.50;;
84695;SDS011;74913;40.204;44.532;2024-01-07T02:32:32;2.55;;;1.30;;
84695;SDS011;74913;40.204;44.532;2024-01-07T02:34:59;4.93;;;2.20;;
84695;SDS011;74913;40.204;44.532;2024-01-07T02:37:25;5.78;;;2.08;;
84695;SDS011;74913;40.204;44.532;2024-01-07T02:39:51;5.35;;;2.35;;
84695;SDS011;74913;40.204;44.532;2024-01-07T02:42:17;6.72;;;2.33;;
84695;SDS011;74913;40.204;44.532;2024-01-07T02:44:42;5.22;;;1.95;;
84695;SDS011;74913;40.204;44.532;2024-01-07T02:47:08;5.78;;;2.33;;
84695;SDS011;74913;40.204;44.532;2024-01-07T02:49:34;4.18;;;2.15;;
84695;SDS011;74913;40.204;44.532;2024-01-07T02:52:00;4.63;;;2.13;;
84695;SDS011;74913;40.204;44.532;2024-01-07T02:54:25;7.03;;;2.28;;
84695;SDS011;74913;40.204;44.532;2024-01-07T02:56:51;6.60;;;2.05;;
84695;SDS011;74913;40.204;44.532;2024-01-07T02:59:16;4.65;;;1.95;;
84695;SDS011;74913;40.204;44.532;2024-01-07T03:01:42;4.60;;;1.98;;
84695;SDS011;74913;40.204;44.532;2024-01-07T03:04:09;4.95;;;1.60;;
84695;SDS011;74913;40.204;44.532;2024-01-07T03:06:35;4.95;;;1.70;;
84695;SDS011;74913;40.204;44.532;2024-01-07T03:09:01;3.83;;;1.50;;
84695;SDS011;74913;40.204;44.532;2024-01-07T03:11:28;4.80;;;1.83;;
84695;SDS011;74913;40.204;44.532;2024-01-07T03:16:20;3.75;;;1.77;;
84695;SDS011;74913;40.204;44.532;2024-01-07T03:18:46;2.70;;;1.60;;
84695;SDS011;74913;40.204;44.532;2024-01-07T03:21:22;4.00;;;2.20;;
84695;SDS011;74913;40.204;44.532;2024-01-07T03:23:49;3.22;;;1.45;;
84695;SDS011;74913;40.204;44.532;2024-01-07T03:26:16;3.88;;;1.80;;
84695;SDS011;74913;40.204;44.532;2024-01-07T03:28:42;3.45;;;1.60;;
84695;SDS011;74913;40.204;44.532;2024-01-07T03:31:09;3.13;;;1.58;;
84695;SDS011;74913;40.204;44.532;2024-01-07T03:33:38;5.50;;;1.63;;
84695;SDS011;74913;40.204;44.532;2024-01-07T03:38:37;2.95;;;1.50;;
84695;SDS011;74913;40.204;44.532;2024-01-07T03:41:03;4.97;;;2.28;;
84695;SDS011;74913;40.204;44.532;2024-01-07T03:43:29;2.53;;;1.38;;
84695;SDS011;74913;40.204;44.532;2024-01-07T03:45:55;3.47;;;1.77;;
84695;SDS011;74913;40.204;44.532;2024-01-07T03:48:20;2.80;;;1.58;;
84695;SDS011;74913;40.204;44.532;2024-01-07T03:50:46;3.25;;;1.58;;
84695;SDS011;74913;40.204;44.532;2024-01-07T03:53:12;5.22;;;1.85;;
84695;SDS011;74913;40.204;44.532;2024-01-07T03:55:38;2.55;;;1.50;;
84695;SDS011;74913;40.204;44.532;2024-01-07T03:58:04;3.47;;;1.52;;
84695;SDS011;74913;40.204;44.532;2024-01-07T04:02:56;4.45;;;1.42;;
84695;SDS011;74913;40.204;44.532;2024-01-07T04:05:22;3.05;;;1.88;;
84695;SDS011;74913;40.204;44.532;2024-01-07T04:07:47;3.95;;;1.50;;
84695;SDS011;74913;40.204;44.532;2024-01-07T04:10:13;5.20;;;1.88;;
84695;SDS011;74913;40.204;44.532;2024-01-07T04:12:41;3.33;;;1.85;;
84695;SDS011;74913;40.204;44.532;2024-01-07T04:15:07;4.20;;;1.92;;
84695;SDS011;74913;40.204;44.532;2024-01-07T04:17:33;3.80;;;1.52;;
84695;SDS011;74913;40.204;44.532;2024-01-07T04:19:58;5.63;;;1.80;;
84695;SDS011;74913;40.204;44.532;2024-01-07T04:22:24;2.25;;;1.38;;
84695;SDS011;74913;40.204;44.532;2024-01-07T04:24:50;3.38;;;1.77;;
84695;SDS011;74913;40.204;44.532;2024-01-07T04:27:15;3.10;;;1.52;;
84695;SDS011;74913;40.204;44.532;2024-01-07T04:29:41;4.25;;;1.80;;
84695;SDS011;74913;40.204;44.532;2024-01-07T04:32:06;6.15;;;2.63;;
84695;SDS011;74913;40.204;44.532;2024-01-07T04:34:32;4.05;;;2.22;;
84695;SDS011;74913;40.204;44.532;2024-01-07T04:36:58;5.70;;;3.03;;
84695;SDS011;74913;40.204;44.532;2024-01-07T04:39:23;5.25;;;2.30;;
84695;SDS011;74913;40.204;44.532;2024-01-07T04:41:49;7.35;;;3.10;;
84695;SDS011;74913;40.204;44.532;2024-01-07T04:44:14;3.95;;;2.05;;
84695;SDS011;74913;40.204;44.532;2024-01-07T04:46:40;5.35;;;2.75;;
84695;SDS011;74913;40.204;44.532;2024-01-07T04:49:06;4.65;;;2.63;;
84695;SDS011;74913;40.204;44.532;2024-01-07T04:51:32;5.63;;;3.05;;
84695;SDS011;74913;40.204;44.532;2024-01-07T04:53:58;5.68;;;3.08;;
84695;SDS011;74913;40.204;44.532;2024-01-07T04:56:24;6.75;;;2.70;;
84695;SDS011;74913;40.204;44.532;2024-01-07T04:58:50;9.18;;;3.38;;
84695;SDS011;74913;40.204;44.532;2024-01-07T05:01:15;6.78;;;3.15;;
84695;SDS011;74913;40.204;44.532;2024-01-07T05:03:41;8.85;;;3.08;;
84695;SDS011;74913;40.204;44.532;2024-01-07T05:06:09;9.57;;;4.18;;
84695;SDS011;74913;40.204;44.532;2024-01-07T05:08:36;9.77;;;4.10;;
84695;SDS011;74913;40.204;44.532;2024-01-07T05:11:03;6.40;;;3.70;;
84695;SDS011;74913;40.204;44.532;2024-01-07T05:13:29;7.15;;;4.15;;
84695;SDS011;74913;40.204;44.532;2024-01-07T05:15:56;8.52;;;3.75;;
84695;SDS011;74913;40.204;44.532;2024-01-07T05:18:22;7.22;;;3.30;;
84695;SDS011;74913;40.204;44.532;2024-01-07T05:23:14;6.43;;;3.90;;
84695;SDS011;74913;40.204;44.532;2024-01-07T05:25:41;10.52;;;3.72;;
84695;SDS011;74913;40.204;44.532;2024-01-07T05:28:08;6.75;;;3.72;;
84695;SDS011;74913;40.204;44.532;2024-01-07T05:30:34;7.45;;;3.63;;
84695;SDS011;74913;40.204;44.532;2024-01-07T05:32:59;7.35;;;3.45;;
84695;SDS011;74913;40.204;44.532;2024-01-07T05:35:25;6.85;;;4.00;;
84695;SDS011;74913;40.204;44.532;2024-01-07T05:37:50;11.30;;;4.68;;
84695;SDS011;74913;40.204;44.532;2024-01-07T05:40:16;10.05;;;4.22;;
84695;SDS011;74913;40.204;44.532;2024-01-07T05:42:42;13.02;;;4.57;;
84695;SDS011;74913;40.204;44.532;2024-01-07T05:45:07;12.52;;;5.00;;
84695;SDS011;74913;40.204;44.532;2024-01-07T05:47:33;14.20;;;5.22;;
84695;SDS011;74913;40.204;44.532;2024-01-07T05:49:59;9.55;;;4.53;;
84695;SDS011;74913;40.204;44.532;2024-01-07T05:52:24;10.50;;;4.65;;
84695;SDS011;74913;40.204;44.532;2024-01-07T05:54:50;13.63;;;5.07;;
84695;SDS011;74913;40.204;44.532;2024-01-07T05:57:16;10.27;;;4.40;;
84695;SDS011;74913;40.204;44.532;2024-01-07T05:59:43;7.55;;;3.67;;
84695;SDS011;74913;40.204;44.532;2024-01-07T06:02:09;7.03;;;3.40;;
84695;SDS011;74913;40.204;44.532;2024-01-07T06:04:36;8.70;;;4.22;;
84695;SDS011;74913;40.204;44.532;2024-01-07T06:07:02;16.38;;;5.53;;
84695;SDS011;74913;40.204;44.532;2024-01-07T06:09:28;10.77;;;4.82;;
84695;SDS011;74913;40.204;44.532;2024-01-07T06:11:54;8.23;;;3.92;;
84695;SDS011;74913;40.204;44.532;2024-01-07T06:14:21;6.65;;;3.45;;
84695;SDS011;74913;40.204;44.532;2024-01-07T06:16:47;5.25;;;2.53;;
84695;SDS011;74913;40.204;44.532;2024-01-07T06:19:13;7.22;;;3.20;;
84695;SDS011;74913;40.204;44.532;2024-01-07T06:21:42;5.15;;;2.53;;
84695;SDS011;74913;40.204;44.532;2024-01-07T06:24:07;7.32;;;2.97;;
84695;SDS011;74913;40.204;44.532;2024-01-07T06:26:34;6.00;;;2.67;;
84695;SDS011;74913;40.204;44.532;2024-01-07T06:29:00;5.90;;;3.00;;
84695;SDS011;74913;40.204;44.532;2024-01-07T06:31:26;5.00;;;2.60;;
84695;SDS011;74913;40.204;44.532;2024-01-07T06:33:51;6.40;;;2.45;;
84695;SDS011;74913;40.204;44.532;2024-01-07T06:36:17;6.50;;;2.70;;
84695;SDS011;74913;40.204;44.532;2024-01-07T06:38:43;5.35;;;2.70;;
84695;SDS011;74913;40.204;44.532;2024-01-07T06:41:09;5.50;;;2.70;;
84695;SDS011;74913;40.204;44.532;2024-01-07T06:43:38;5.60;;;2.30;;
84695;SDS011;74913;40.204;44.532;2024-01-07T06:46:04;10.55;;;4.03;;
84695;SDS011;74913;40.204;44.532;2024-01-07T06:48:30;10.13;;;3.40;;
84695;SDS011;74913;40.204;44.532;2024-01-07T06:50:55;7.03;;;3.72;;
84695;SDS011;74913;40.204;44.532;2024-01-07T06:53:21;7.75;;;4.13;;
84695;SDS011;74913;40.204;44.532;2024-01-07T06:55:47;7.40;;;4.43;;
84695;SDS011;74913;40.204;44.532;2024-01-07T06:58:12;7.05;;;3.95;;
84695;SDS011;74913;40.204;44.532;2024-01-07T07:00:38;6.95;;;3.88;;
84695;SDS011;74913;40.204;44.532;2024-01-07T07:03:04;6.45;;;3.05;;
84695;SDS011;74913;40.204;44.532;2024-01-07T07:05:30;5.55;;;3.20;;
84695;SDS011;74913;40.204;44.532;2024-01-07T07:07:57;7.55;;;3.58;;
84695;SDS011;74913;40.204;44.532;2024-01-07T07:10:22;9.82;;;4.43;;
84695;SDS011;74913;40.204;44.532;2024-01-07T07:12:48;8.65;;;4.10;;
84695;SDS011;74913;40.204;44.532;2024-01-07T07:15:16;7.45;;;4.13;;
84695;SDS011;74913;40.204;44.532;2024-01-07T07:17:42;5.97;;;3.67;;
84695;SDS011;74913;40.204;44.532;2024-01-07T07:20:08;8.70;;;4.68;;
84695;SDS011;74913;40.204;44.532;2024-01-07T07:24:59;11.20;;;4.80;;
84695;SDS011;74913;40.204;44.532;2024-01-07T07:27:25;7.88;;;4.70;;
84695;SDS011;74913;40.204;44.532;2024-01-07T07:29:51;7.35;;;4.05;;
84695;SDS011;74913;40.204;44.532;2024-01-07T07:32:17;7.43;;;4.72;;
84695;SDS011;74913;40.204;44.532;2024-01-07T07:34:43;9.40;;;4.82;;
84695;SDS011;74913;40.204;44.532;2024-01-07T07:37:08;7.53;;;4.65;;
84695;SDS011;74913;40.204;44.532;2024-01-07T07:39:35;14.63;;;5.75;;
84695;SDS011;74913;40.204;44.532;2024-01-07T07:42:00;25.58;;;10.52;;
84695;SDS011;74913;40.204;44.532;2024-01-07T07:44:26;30.45;;;8.90;;
84695;SDS011;74913;40.204;44.532;2024-01-07T07:46:52;13.40;;;5.78;;
84695;SDS011;74913;40.204;44.532;2024-01-07T07:49:17;7.88;;;4.47;;
84695;SDS011;74913;40.204;44.532;2024-01-07T07:51:43;13.25;;;5.53;;
84695;SDS011;74913;40.204;44.532;2024-01-07T07:54:09;10.10;;;4.68;;
84695;SDS011;74913;40.204;44.532;2024-01-07T07:56:34;10.77;;;5.63;;
84695;SDS011;74913;40.204;44.532;2024-01-07T07:59:01;16.23;;;6.30;;
84695;SDS011;74913;40.204;44.532;2024-01-07T08:01:28;11.25;;;5.25;;
84695;SDS011;74913;40.204;44.532;2024-01-07T08:03:54;21.30;;;8.88;;
84695;SDS011;74913;40.204;44.532;2024-01-07T08:06:19;18.80;;;7.95;;
84695;SDS011;74913;40.204;44.532;2024-01-07T08:08:45;21.35;;;7.65;;
84695;SDS011;74913;40.204;44.532;2024-01-07T08:11:10;30.65;;;10.35;;
84695;SDS011;74913;40.204;44.532;2024-01-07T08:13:37;28.90;;;10.18;;
84695;SDS011;74913;40.204;44.532;2024-01-07T08:16:03;15.15;;;7.28;;
84695;SDS011;74913;40.204;44.532;2024-01-07T08:18:30;16.38;;;8.18;;
84695;SDS011;74913;40.204;44.532;2024-01-07T08:20:56;13.23;;;6.70;;
84695;SDS011;74913;40.204;44.532;2024-01-07T08:23:23;15.63;;;7.57;;
84695;SDS011;74913;40.204;44.532;2024-01-07T08:25:49;10.60;;;5.57;;
84695;SDS011;74913;40.204;44.532;2024-01-07T08:28:16;19.20;;;8.73;;
84695;SDS011;74913;40.204;44.532;2024-01-07T08:30:42;14.88;;;6.78;;
84695;SDS011;74913;40.204;44.532;2024-01-07T08:33:07;13.95;;;7.43;;
84695;SDS011;74913;40.204;44.532;2024-01-07T08:35:33;17.50;;;9.35;;
84695;SDS011;74913;40.204;44.532;2024-01-07T08:37:59;12.10;;;6.05;;
84695;SDS011;74913;40.204;44.532;2024-01-07T08:40:24;12.23;;;6.28;;
84695;SDS011;74913;40.204;44.532;2024-01-07T08:42:50;12.00;;;6.80;;
84695;SDS011;74913;40.204;44.532;2024-01-07T08:45:15;14.07;;;7.15;;
84695;SDS011;74913;40.204;44.532;2024-01-07T08:47:41;12.70;;;6.13;;
84695;SDS011;74913;40.204;44.532;2024-01-07T08:50:07;13.48;;;6.47;;
84695;SDS011;74913;40.204;44.532;2024-01-07T08:52:33;12.07;;;7.57;;
84695;SDS011;74913;40.204;44.532;2024-01-07T08:55:00;12.15;;;7.05;;
84695;SDS011;74913;40.204;44.532;2024-01-07T08:57:29;14.52;;;7.72;;
84695;SDS011;74913;40.204;44.532;2024-01-07T08:59:54;21.17;;;10.43;;
84695;SDS011;74913;40.204;44.532;2024-01-07T09:02:20;12.20;;;7.53;;
84695;SDS011;74913;40.204;44.532;2024-01-07T09:04:45;12.38;;;7.07;;
84695;SDS011;74913;40.204;44.532;2024-01-07T09:07:11;14.77;;;7.28;;
84695;SDS011;74913;40.204;44.532;2024-01-07T09:09:37;15.35;;;7.75;;
84695;SDS011;74913;40.204;44.532;2024-01-07T09:12:02;12.35;;;5.60;;
84695;SDS011;74913;40.204;44.532;2024-01-07T09:14:29;18.83;;;9.43;;
84695;SDS011;74913;40.204;44.532;2024-01-07T09:19:20;12.02;;;5.35;;
84695;SDS011;74913;40.204;44.532;2024-01-07T09:21:46;16.30;;;6.45;;
84695;SDS011;74913;40.204;44.532;2024-01-07T09:24:12;12.38;;;6.22;;
84695;SDS011;74913;40.204;44.532;2024-01-07T09:26:37;15.18;;;6.65;;
84695;SDS011;74913;40.204;44.532;2024-01-07T09:29:03;17.10;;;7.57;;
84695;SDS011;74913;40.204;44.532;2024-01-07T09:31:28;14.65;;;7.15;;
84695;SDS011;74913;40.204;44.532;2024-01-07T09:33:54;15.27;;;6.90;;
84695;SDS011;74913;40.204;44.532;2024-01-07T09:36:20;15.10;;;6.55;;
84695;SDS011;74913;40.204;44.532;2024-01-07T09:38:45;12.05;;;5.63;;
84695;SDS011;74913;40.204;44.532;2024-01-07T09:41:11;9.85;;;4.95;;
84695;SDS011;74913;40.204;44.532;2024-01-07T09:43:37;14.27;;;7.10;;
84695;SDS011;74913;40.204;44.532;2024-01-07T09:46:03;11.57;;;5.88;;
84695;SDS011;74913;40.204;44.532;2024-01-07T09:48:29;13.10;;;5.95;;
84695;SDS011;74913;40.204;44.532;2024-01-07T09:50:55;12.43;;;6.25;;
84695;SDS011;74913;40.204;44.532;2024-01-07T09:53:25;12.50;;;5.90;;
84695;SDS011;74913;40.204;44.532;2024-01-07T09:58:31;12.10;;;5.93;;
84695;SDS011;74913;40.204;44.532;2024-01-07T10:00:57;17.85;;;6.82;;
84695;SDS011;74913;40.204;44.532;2024-01-07T10:03:22;13.35;;;7.97;;
84695;SDS011;74913;40.204;44.532;2024-01-07T10:05:49;19.38;;;9.30;;
84695;SDS011;74913;40.204;44.532;2024-01-07T10:08:14;23.52;;;8.98;;
84695;SDS011;74913;40.204;44.532;2024-01-07T10:10:40;21.52;;;10.40;;
84695;SDS011;74913;40.204;44.532;2024-01-07T10:13:06;15.23;;;7.25;;
84695;SDS011;74913;40.204;44.532;2024-01-07T10:15:33;15.70;;;9.32;;
84695;SDS011;74913;40.204;44.532;2024-01-07T10:18:03;15.88;;;7.85;;
84695;SDS011;74913;40.204;44.532;2024-01-07T10:20:31;16.52;;;7.30;;
84695;SDS011;74913;40.204;44.532;2024-01-07T10:22:58;9.35;;;5.63;;
84695;SDS011;74913;40.204;44.532;2024-01-07T10:25:24;15.25;;;6.70;;
84695;SDS011;74913;40.204;44.532;2024-01-07T10:27:49;7.82;;;4.82;;
84695;SDS011;74913;40.204;44.532;2024-01-07T10:30:15;9.18;;;4.63;;
84695;SDS011;74913;40.204;44.532;2024-01-07T10:32:42;14.65;;;6.93;;
84695;SDS011;74913;40.204;44.532;2024-01-07T10:35:08;12.07;;;5.05;;
84695;SDS011;74913;40.204;44.532;2024-01-07T10:37:42;12.82;;;7.07;;
84695;SDS011;74913;40.204;44.532;2024-01-07T10:40:11;11.23;;;6.13;;
84695;SDS011;74913;40.204;44.532;2024-01-07T10:42:37;12.45;;;6.18;;
84695;SDS011;74913;40.204;44.532;2024-01-07T10:45:04;10.65;;;5.80;;
84695;SDS011;74913;40.204;44.532;2024-01-07T10:47:30;10.20;;;5.22;;
84695;SDS011;74913;40.204;44.532;2024-01-07T10:49:57;8.02;;;4.00;;
84695;SDS011;74913;40.204;44.532;2024-01-07T10:52:26;8.55;;;5.32;;
84695;SDS011;74913;40.204;44.532;2024-01-07T10:54:53;10.13;;;6.32;;
84695;SDS011;74913;40.204;44.532;2024-01-07T10:57:34;33.08;;;12.43;;
84695;SDS011;74913;40.204;44.532;2024-01-07T11:00:08;11.85;;;6.32;;
84695;SDS011;74913;40.204;44.532;2024-01-07T11:02:45;10.48;;;4.85;;
84695;SDS011;74913;40.204;44.532;2024-01-07T11:08:33;13.63;;;5.70;;
84695;SDS011;74913;40.204;44.532;2024-01-07T11:11:06;14.95;;;6.72;;
84695;SDS011;74913;40.204;44.532;2024-01-07T11:13:37;10.93;;;6.15;;
84695;SDS011;74913;40.204;44.532;2024-01-07T11:16:04;11.32;;;5.50;;
84695;SDS011;74913;40.204;44.532;2024-01-07T11:18:31;11.23;;;5.82;;
84695;SDS011;74913;40.204;44.532;2024-01-07T11:21:01;11.07;;;5.75;;
84695;SDS011;74913;40.204;44.532;2024-01-07T11:23:29;13.43;;;5.95;;
84695;SDS011;74913;40.204;44.532;2024-01-07T11:25:58;11.23;;;6.78;;
84695;SDS011;74913;40.204;44.532;2024-01-07T11:28:42;13.10;;;7.43;;
84695;SDS011;74913;40.204;44.532;2024-01-07T11:31:07;9.38;;;6.13;;
84695;SDS011;74913;40.204;44.532;2024-01-07T11:33:36;11.00;;;5.65;;
84695;SDS011;74913;40.204;44.532;2024-01-07T11:36:02;7.25;;;4.78;;
84695;SDS011;74913;40.204;44.532;2024-01-07T11:38:29;12.02;;;5.57;;
84695;SDS011;74913;40.204;44.532;2024-01-07T11:40:56;10.18;;;6.07;;
84695;SDS011;74913;40.204;44.532;2024-01-07T11:43:22;10.32;;;6.30;;
84695;SDS011;74913;40.204;44.532;2024-01-07T11:45:51;12.43;;;7.07;;
84695;SDS011;74913;40.204;44.532;2024-01-07T11:48:18;11.43;;;6.43;;
84695;SDS011;74913;40.204;44.532;2024-01-07T11:50:44;15.02;;;7.82;;
84695;SDS011;74913;40.204;44.532;2024-01-07T11:53:13;12.25;;;6.70;;
84695;SDS011;74913;40.204;44.532;2024-01-07T11:55:39;11.60;;;7.43;;
84695;SDS011;74913;40.204;44.532;2024-01-07T11:58:05;13.45;;;7.35;;
84695;SDS011;74913;40.204;44.532;2024-01-07T12:00:31;15.30;;;8.00;;
84695;SDS011;74913;40.204;44.532;2024-01-07T12:03:00;16.45;;;8.30;;
84695;SDS011;74913;40.204;44.532;2024-01-07T12:05:29;19.70;;;10.43;;
84695;SDS011;74913;40.204;44.532;2024-01-07T12:07:55;17.85;;;9.82;;
84695;SDS011;74913;40.204;44.532;2024-01-07T12:10:24;17.05;;;8.55;;
84695;SDS011;74913;40.204;44.532;2024-01-07T12:12:50;16.65;;;8.63;;
84695;SDS011;74913;40.204;44.532;2024-01-07T12:15:16;12.82;;;7.45;;
84695;SDS011;74913;40.204;44.532;2024-01-07T12:17:42;18.25;;;8.60;;
84695;SDS011;74913;40.204;44.532;2024-01-07T12:20:20;18.20;;;7.75;;
84695;SDS011;74913;40.204;44.532;2024-01-07T12:22:45;18.52;;;9.60;;
84695;SDS011;74913;40.204;44.532;2024-01-07T12:25:12;16.33;;;8.52;;
84695;SDS011;74913;40.204;44.532;2024-01-07T12:27:40;16.25;;;8.25;;
84695;SDS011;74913;40.204;44.532;2024-01-07T12:30:06;20.27;;;10.15;;
84695;SDS011;74913;40.204;44.532;2024-01-07T12:32:32;19.77;;;8.73;;
84695;SDS011;74913;40.204;44.532;2024-01-07T12:34:58;17.33;;;8.75;;
84695;SDS011;74913;40.204;44.532;2024-01-07T12:37:27;21.20;;;11.27;;
84695;SDS011;74913;40.204;44.532;2024-01-07T12:39:53;21.10;;;10.75;;
84695;SDS011;74913;40.204;44.532;2024-01-07T12:42:19;15.07;;;7.45;;
84695;SDS011;74913;40.204;44.532;2024-01-07T12:44:49;16.92;;;8.77;;
84695;SDS011;74913;40.204;44.532;2024-01-07T12:47:15;16.88;;;8.18;;
84695;SDS011;74913;40.204;44.532;2024-01-07T12:52:06;20.38;;;9.95;;
84695;SDS011;74913;40.204;44.532;2024-01-07T12:54:32;15.15;;;7.95;;
84695;SDS011;74913;40.204;44.532;2024-01-07T12:59:24;18.70;;;8.77;;
84695;SDS011;74913;40.204;44.532;2024-01-07T13:01:49;16.10;;;7.75;;
84695;SDS011;74913;40.204;44.532;2024-01-07T13:06:42;16.45;;;9.15;;
84695;SDS011;74913;40.204;44.532;2024-01-07T13:09:07;14.02;;;7.53;;
84695;SDS011;74913;40.204;44.532;2024-01-07T13:11:34;19.92;;;10.15;;
84695;SDS011;74913;40.204;44.532;2024-01-07T13:16:27;15.15;;;8.32;;
84695;SDS011;74913;40.204;44.532;2024-01-07T13:21:19;17.92;;;8.75;;
84695;SDS011;74913;40.204;44.532;2024-01-07T13:23:45;15.07;;;6.78;;
84695;SDS011;74913;40.204;44.532;2024-01-07T13:26:12;9.73;;;5.32;;
84695;SDS011;74913;40.204;44.532;2024-01-07T13:28:38;14.00;;;8.13;;
84695;SDS011;74913;40.204;44.532;2024-01-07T13:31:04;19.55;;;11.30;;
84695;SDS011;74913;40.204;44.532;2024-01-07T13:33:32;19.77;;;10.90;;
84695;SDS011;74913;40.204;44.532;2024-01-07T13:38:23;18.33;;;7.80;;
84695;SDS011;74913;40.204;44.532;2024-01-07T13:40:49;7.15;;;3.97;;
84695;SDS011;74913;40.204;44.532;2024-01-07T13:45:41;12.27;;;6.10;;
84695;SDS011;74913;40.204;44.532;2024-01-07T13:48:06;18.60;;;9.20;;
84695;SDS011;74913;40.204;44.532;2024-01-07T13:50:32;10.77;;;6.20;;
84695;SDS011;74913;40.204;44.532;2024-01-07T13:52:58;17.30;;;10.00;;
84695;SDS011;74913;40.204;44.532;2024-01-07T13:55:24;17.35;;;11.02;;
84695;SDS011;74913;40.204;44.532;2024-01-07T13:57:50;8.60;;;4.88;;
84695;SDS011;74913;40.204;44.532;2024-01-07T14:00:15;24.05;;;9.43;;
84695;SDS011;74913;40.204;44.532;2024-01-07T14:02:44;19.42;;;9.52;;
84695;SDS011;74913;40.204;44.532;2024-01-07T14:05:12;16.80;;;9.50;;
84695;SDS011;74913;40.204;44.532;2024-01-07T14:07:38;14.98;;;7.40;;
84695;SDS011;74913;40.204;44.532;2024-01-07T14:10:04;16.42;;;8.23;;
84695;SDS011;74913;40.204;44.532;2024-01-07T14:12:31;21.85;;;11.02;;
84695;SDS011;74913;40.204;44.532;2024-01-07T14:14:57;23.23;;;11.32;;
84695;SDS011;74913;40.204;44.532;2024-01-07T14:17:24;21.63;;;10.68;;
84695;SDS011;74913;40.204;44.532;2024-01-07T14:19:50;41.00;;;23.17;;
84695;SDS011;74913;40.204;44.532;2024-01-07T14:22:18;23.15;;;11.50;;
84695;SDS011;74913;40.204;44.532;2024-01-07T14:24:45;17.58;;;8.73;;
84695;SDS011;74913;40.204;44.532;2024-01-07T14:27:11;19.13;;;7.60;;
84695;SDS011;74913;40.204;44.532;2024-01-07T14:29:37;18.17;;;9.50;;
84695;SDS011;74913;40.204;44.532;2024-01-07T14:32:04;11.88;;;6.57;;
84695;SDS011;74913;40.204;44.532;2024-01-07T14:34:31;6.97;;;4.13;;
84695;SDS011;74913;40.204;44.532;2024-01-07T14:36:57;15.77;;;7.65;;
84695;SDS011;74913;40.204;44.532;2024-01-07T14:39:23;17.58;;;8.90;;
84695;SDS011;74913;40.204;44.532;2024-01-07T14:41:48;21.48;;;10.57;;
84695;SDS011;74913;40.204;44.532;2024-01-07T14:44:14;18.15;;;8.18;;
84695;SDS011;74913;40.204;44.532;2024-01-07T14:46:40;20.50;;;9.10;;
84695;SDS011;74913;40.204;44.532;2024-01-07T14:49:05;18.55;;;7.85;;
84695;SDS011;74913;40.204;44.532;2024-01-07T14:51:32;26.00;;;11.27;;
84695;SDS011;74913;40.204;44.532;2024-01-07T14:53:58;20.23;;;9.50;;
84695;SDS011;74913;40.204;44.532;2024-01-07T14:56:23;27.00;;;10.73;;
84695;SDS011;74913;40.204;44.532;2024-01-07T14:58:49;15.52;;;7.85;;
84695;SDS011;74913;40.204;44.532;2024-01-07T15:01:16;17.42;;;8.73;;
84695;SDS011;74913;40.204;44.532;2024-01-07T15:03:41;26.48;;;13.82;;